Time;durP1;ratioP1;P1;durP2;ratioP2;P2;SDS_P1;SDS_P2;PMS_P1;PMS_P2;Temp;Humidity;BMP_temperature;BMP_pressure;BME280_temperature;BME280_humidity;BME280_pressure;Samples;Min_cycle;Max_cycle;Signal;HPM_P1;HPM_P2
2022/08/22 00:01:19;;;;;;;9.43;6.30;;;17.50;36.20;;;;;;5077853;28;20476;-66
2022/08/22 00:03:56;;;;;;;8.83;5.43;;;17.40;36.20;;;;;;5060505;28;20495;-66
2022/08/22 00:06:30;;;;;;;8.77;6.03;;;17.40;36.10;;;;;;5066536;28;20465;-66
2022/08/22 00:09:08;;;;;;;9.40;6.13;;;17.40;35.80;;;;;;5061973;28;20461;-66
2022/08/22 00:11:45;;;;;;;7.13;4.83;;;17.40;35.50;;;;;;5067800;28;20468;-66
2022/08/22 00:14:20;;;;;;;10.00;6.07;;;17.40;35.90;;;;;;5064568;28;20568;-66
2022/08/22 00:16:56;;;;;;;9.60;5.10;;;17.30;35.30;;;;;;5070125;28;20459;-66
2022/08/22 00:19:30;;;;;;;8.80;5.37;;;17.30;35.30;;;;;;5068758;28;20456;-66
2022/08/22 00:22:03;;;;;;;8.07;4.90;;;17.30;35.20;;;;;;5076438;28;20448;-65
2022/08/22 00:24:39;;;;;;;11.83;5.53;;;17.30;35.10;;;;;;5071201;28;20477;-66
2022/08/22 00:27:12;;;;;;;7.80;4.90;;;17.20;35.10;;;;;;5069015;28;20708;-66
2022/08/22 00:29:44;;;;;;;8.40;5.27;;;17.20;35.50;;;;;;5068218;28;20461;-66
2022/08/22 00:32:15;;;;;;;8.10;4.57;;;17.10;35.70;;;;;;5071553;28;20485;-66
2022/08/22 00:34:49;;;;;;;8.37;5.80;;;17.10;35.70;;;;;;5073883;28;20457;-66
2022/08/22 00:37:23;;;;;;;9.90;5.13;;;17.10;36.00;;;;;;5070805;28;21078;-66
2022/08/22 00:39:58;;;;;;;8.30;5.93;;;17.00;35.80;;;;;;5068643;28;20456;-66
2022/08/22 00:43:00;;;;;;;10.27;6.50;;;17.00;35.80;;;;;;5075056;28;20479;-66
2022/08/22 00:46:00;;;;;;;9.03;6.00;;;16.90;35.90;;;;;;5074019;28;20960;-66
2022/08/22 00:48:58;;;;;;;7.97;5.60;;;16.90;36.10;;;;;;5070332;28;20449;-66
2022/08/22 00:51:59;;;;;;;10.20;6.00;;;16.90;36.00;;;;;;5075738;28;20487;-66
2022/08/22 00:54:36;;;;;;;8.50;5.30;;;16.80;35.90;;;;;;5067698;28;20487;-66
2022/08/22 00:57:35;;;;;;;9.90;6.43;;;16.80;35.90;;;;;;5066725;28;20452;-66
2022/08/22 01:00:09;;;;;;;10.80;6.80;;;16.80;36.00;;;;;;5068137;28;20822;-66
2022/08/22 01:02:50;;;;;;;11.63;6.50;;;16.80;36.20;;;;;;5073635;28;20503;-65
2022/08/22 01:05:32;;;;;;;9.97;6.73;;;16.80;36.80;;;;;;5070401;28;20479;-65
2022/08/22 01:08:20;;;;;;;10.60;6.10;;;16.80;36.80;;;;;;5070919;28;20488;-65
2022/08/22 01:11:02;;;;;;;11.03;6.00;;;16.70;36.60;;;;;;5071945;28;20479;-66
2022/08/22 01:13:50;;;;;;;10.27;6.80;;;16.70;36.70;;;;;;5072622;28;20468;-66
2022/08/22 01:16:30;;;;;;;18.90;7.27;;;16.70;36.90;;;;;;5071182;28;20452;-66
2022/08/22 01:19:20;;;;;;;10.73;5.87;;;16.70;36.60;;;;;;5072319;28;20459;-66
2022/08/22 01:22:19;;;;;;;11.03;6.27;;;16.70;36.60;;;;;;5067563;28;20460;-66
2022/08/22 01:25:32;;;;;;;9.23;5.40;;;16.70;36.50;;;;;;5064472;28;20461;-66
2022/08/22 01:28:37;;;;;;;8.67;6.37;;;16.70;36.70;;;;;;5068376;28;20502;-66
2022/08/22 01:31:47;;;;;;;11.13;5.97;;;16.60;36.70;;;;;;5071312;28;20472;-66
2022/08/22 01:34:54;;;;;;;9.40;6.10;;;16.60;36.60;;;;;;5064692;28;20477;-66
2022/08/22 01:37:57;;;;;;;11.40;5.70;;;16.50;36.60;;;;;;5068837;28;20972;-66
2022/08/22 01:40:59;;;;;;;7.20;5.30;;;16.50;36.70;;;;;;5058675;28;20457;-66
2022/08/22 01:43:42;;;;;;;8.77;5.83;;;16.50;36.80;;;;;;5068730;28;20476;-66
2022/08/22 01:46:32;;;;;;;11.80;7.20;;;16.40;36.60;;;;;;5064150;28;20478;-66
2022/08/22 01:49:09;;;;;;;11.57;6.20;;;16.40;36.90;;;;;;5079601;28;20546;-66
2022/08/22 01:51:42;;;;;;;9.63;5.17;;;16.30;36.60;;;;;;5068418;28;20449;-66
2022/08/22 01:54:21;;;;;;;8.10;5.67;;;16.30;36.90;;;;;;5069511;28;20469;-66
2022/08/22 01:56:48;;;;;;;8.30;5.43;;;16.20;37.00;;;;;;5065595;28;20460;-66
2022/08/22 01:59:29;;;;;;;9.80;5.63;;;16.20;37.20;;;;;;5070312;28;20462;-66
2022/08/22 02:02:01;;;;;;;10.73;6.10;;;16.20;37.30;;;;;;5068785;28;20476;-66
2022/08/22 02:04:38;;;;;;;9.00;6.10;;;16.10;37.30;;;;;;5071007;28;20480;-66
2022/08/22 02:07:11;;;;;;;8.67;5.80;;;16.10;37.30;;;;;;5066658;28;20824;-66
2022/08/22 02:09:48;;;;;;;10.00;5.27;;;16.10;37.20;;;;;;5065064;28;20457;-66
2022/08/22 02:12:26;;;;;;;10.00;6.03;;;16.10;37.20;;;;;;5068077;28;20479;-66
2022/08/22 02:15:03;;;;;;;9.40;5.40;;;16.10;37.20;;;;;;5065540;28;20453;-66
2022/08/22 02:17:33;;;;;;;8.93;5.77;;;16.00;37.30;;;;;;5072774;28;21006;-66
2022/08/22 02:20:10;;;;;;;9.40;5.80;;;16.00;37.30;;;;;;5067975;28;21134;-66
2022/08/22 02:22:42;;;;;;;9.63;6.80;;;16.00;37.60;;;;;;5063756;28;20981;-66
2022/08/22 02:25:16;;;;;;;9.60;6.57;;;15.90;37.60;;;;;;5067468;28;20464;-66
2022/08/22 02:27:52;;;;;;;9.57;5.70;;;15.90;37.70;;;;;;5069347;28;20475;-66
2022/08/22 02:30:23;;;;;;;7.40;5.80;;;15.90;37.80;;;;;;5062594;28;20452;-66
2022/08/22 02:33:00;;;;;;;9.90;5.93;;;15.90;37.70;;;;;;5065736;28;20511;-66
2022/08/22 02:35:32;;;;;;;9.60;5.67;;;15.90;37.70;;;;;;5079163;28;20453;-66
2022/08/22 02:38:12;;;;;;;9.10;5.80;;;15.90;37.50;;;;;;5070534;28;20457;-66
2022/08/22 02:40:45;;;;;;;8.97;6.47;;;15.90;37.60;;;;;;5064672;28;20458;-67
2022/08/22 02:43:19;;;;;;;9.77;6.10;;;15.80;37.50;;;;;;5076882;28;20480;-66
2022/08/22 02:45:52;;;;;;;8.80;5.00;;;15.80;37.50;;;;;;5066633;28;20452;-66
2022/08/22 02:48:33;;;;;;;10.50;5.80;;;15.80;37.60;;;;;;5064719;28;20476;-66
2022/08/22 02:51:05;;;;;;;10.00;6.03;;;15.80;37.60;;;;;;5060022;28;20449;-66
2022/08/22 02:53:38;;;;;;;8.93;5.70;;;15.80;37.60;;;;;;5068922;28;20482;-66
2022/08/22 02:56:13;;;;;;;8.77;5.17;;;15.80;37.40;;;;;;5068209;28;20457;-66
2022/08/22 02:58:48;;;;;;;8.60;5.07;;;15.80;37.50;;;;;;5065269;28;20457;-66
2022/08/22 03:01:23;;;;;;;14.20;5.60;;;15.80;37.50;;;;;;5062217;28;20504;-66
2022/08/22 03:03:51;;;;;;;7.27;4.90;;;15.80;37.50;;;;;;5073306;28;21007;-66
2022/08/22 03:06:36;;;;;;;10.77;5.97;;;15.80;37.30;;;;;;5068645;28;20472;-66
2022/08/22 03:09:18;;;;;;;8.50;6.10;;;15.70;37.80;;;;;;5067067;28;20793;-66
2022/08/22 03:11:50;;;;;;;8.10;5.23;;;15.70;37.60;;;;;;5072769;28;20460;-66
2022/08/22 03:14:24;;;;;;;8.73;5.67;;;15.70;37.60;;;;;;5070875;28;20469;-66
2022/08/22 03:17:01;;;;;;;8.23;5.33;;;15.60;37.80;;;;;;5062078;28;20452;-66
2022/08/22 03:19:41;;;;;;;10.10;6.30;;;15.60;37.60;;;;;;5067190;28;20963;-66
2022/08/22 03:22:16;;;;;;;11.13;5.73;;;15.50;37.60;;;;;;5070699;28;20535;-67
2022/08/22 03:24:52;;;;;;;9.67;5.90;;;15.50;38.10;;;;;;5067410;28;20830;-66
2022/08/22 03:27:24;;;;;;;10.93;5.90;;;15.50;38.00;;;;;;5064637;28;20484;-66
2022/08/22 03:29:55;;;;;;;10.30;5.30;;;15.50;38.00;;;;;;5064282;28;20445;-66
2022/08/22 03:32:25;;;;;;;10.00;5.70;;;15.40;37.90;;;;;;5059571;28;20477;-67
2022/08/22 03:34:58;;;;;;;7.50;5.13;;;15.40;38.20;;;;;;5060765;28;20458;-67
2022/08/22 03:37:36;;;;;;;9.77;5.90;;;15.40;38.40;;;;;;5059925;28;20464;-67
2022/08/22 03:40:19;;;;;;;7.73;4.80;;;15.40;38.00;;;;;;5062133;28;20885;-66
2022/08/22 03:43:20;;;;;;;8.57;5.50;;;15.30;38.00;;;;;;5059919;28;21042;-67
2022/08/22 03:46:22;;;;;;;7.50;4.97;;;15.20;38.30;;;;;;5051830;28;20479;-66
2022/08/22 03:49:29;;;;;;;9.53;5.63;;;15.20;38.20;;;;;;5062793;28;20455;-67
2022/08/22 03:52:24;;;;;;;9.13;6.10;;;15.20;38.40;;;;;;5058706;28;20502;-66
2022/08/22 03:55:20;;;;;;;9.47;6.00;;;15.10;38.80;;;;;;5068682;28;20478;-66
2022/08/22 03:58:15;;;;;;;9.40;6.80;;;15.10;39.10;;;;;;5064336;28;20823;-67
2022/08/22 04:01:13;;;;;;;8.63;6.40;;;15.10;39.60;;;;;;5061697;28;20980;-66
2022/08/22 04:04:02;;;;;;;9.73;7.00;;;15.10;38.90;;;;;;5059724;28;20485;-69
2022/08/22 04:06:52;;;;;;;12.10;7.37;;;15.10;38.90;;;;;;5059811;28;20468;-64
2022/08/22 04:09:44;;;;;;;12.80;7.70;;;15.00;39.20;;;;;;5064627;28;20983;-64
2022/08/22 04:12:42;;;;;;;10.23;6.50;;;15.00;39.20;;;;;;5072844;28;20460;-64
2022/08/22 04:15:48;;;;;;;9.53;6.27;;;14.90;39.20;;;;;;5060773;28;20468;-64
2022/08/22 04:18:52;;;;;;;11.13;7.10;;;14.90;39.50;;;;;;5064863;28;20460;-64
2022/08/22 04:21:56;;;;;;;10.00;6.67;;;14.90;39.70;;;;;;5068852;28;20465;-64
2022/08/22 04:24:37;;;;;;;11.50;6.93;;;14.90;39.90;;;;;;5056129;28;20517;-64
2022/08/22 04:27:15;;;;;;;12.80;7.73;;;14.90;39.90;;;;;;5066951;28;20480;-64
2022/08/22 04:29:48;;;;;;;13.80;7.90;;;14.80;39.80;;;;;;5066294;28;20472;-63
2022/08/22 04:32:24;;;;;;;15.13;8.60;;;14.80;40.00;;;;;;5061860;28;20474;-63
2022/08/22 04:34:54;;;;;;;20.43;9.60;;;14.90;40.10;;;;;;5060119;28;20483;-63
2022/08/22 04:37:30;;;;;;;25.33;10.10;;;14.80;40.50;;;;;;5067695;28;20449;-63
2022/08/22 04:40:02;;;;;;;19.03;8.80;;;14.80;40.60;;;;;;5070420;28;20687;-63
2022/08/22 04:42:35;;;;;;;19.33;8.30;;;14.80;40.20;;;;;;5078492;28;20450;-64
2022/08/22 04:45:07;;;;;;;18.03;8.50;;;14.90;40.30;;;;;;5061344;28;20457;-63
2022/08/22 04:47:38;;;;;;;13.93;8.40;;;14.90;39.90;;;;;;5069138;28;20475;-63
2022/08/22 04:50:11;;;;;;;14.73;7.70;;;15.00;39.60;;;;;;5060098;28;20465;-64
2022/08/22 04:52:56;;;;;;;13.53;8.40;;;15.00;39.50;;;;;;5073445;28;20476;-64
2022/08/22 04:55:32;;;;;;;14.37;8.27;;;15.00;39.60;;;;;;5064419;28;20969;-64
2022/08/22 04:58:09;;;;;;;13.20;7.27;;;15.10;39.40;;;;;;5067384;28;20457;-63
2022/08/22 05:00:41;;;;;;;11.47;7.37;;;15.20;39.30;;;;;;5078676;28;20464;-64
2022/08/22 05:03:14;;;;;;;12.10;7.30;;;15.20;39.40;;;;;;5076304;28;20473;-64
2022/08/22 05:05:43;;;;;;;12.30;7.67;;;15.30;39.50;;;;;;5072230;28;20460;-64
2022/08/22 05:08:16;;;;;;;10.17;6.20;;;15.40;39.80;;;;;;5067412;28;21157;-64
2022/08/22 05:10:46;;;;;;;13.97;7.80;;;15.50;40.10;;;;;;5071853;28;20452;-64
2022/08/22 05:13:19;;;;;;;13.30;6.30;;;15.80;40.00;;;;;;5071283;28;20500;-64
2022/08/22 05:15:49;;;;;;;8.97;5.23;;;16.10;39.80;;;;;;5066700;28;20470;-63
2022/08/22 05:18:22;;;;;;;9.97;5.67;;;16.40;39.00;;;;;;5079081;28;20460;-64
2022/08/22 05:20:50;;;;;;;11.13;6.10;;;16.70;37.60;;;;;;5061711;28;21103;-63
2022/08/22 05:23:21;;;;;;;11.90;5.97;;;16.90;36.30;;;;;;5081841;28;20479;-64
2022/08/22 05:25:50;;;;;;;11.40;6.30;;;17.10;34.80;;;;;;5070499;28;20467;-64
2022/08/22 05:28:25;;;;;;;11.87;6.97;;;17.50;33.50;;;;;;5069915;28;20473;-64
2022/08/22 05:30:53;;;;;;;13.60;6.73;;;17.80;32.50;;;;;;5065422;28;20471;-63
2022/08/22 05:33:27;;;;;;;14.20;7.07;;;18.10;32.40;;;;;;5069860;28;20837;-64
2022/08/22 05:35:58;;;;;;;11.53;6.70;;;18.50;31.30;;;;;;5070331;28;20956;-63
2022/08/22 05:38:30;;;;;;;10.53;6.20;;;19.00;29.50;;;;;;5067997;28;20457;-64
2022/08/22 05:41:01;;;;;;;9.40;5.80;;;19.70;27.30;;;;;;5078169;28;20464;-64
2022/08/22 05:43:29;;;;;;;8.63;5.20;;;20.50;24.80;;;;;;5071582;28;21008;-64
2022/08/22 05:45:57;;;;;;;9.40;5.33;;;21.30;22.10;;;;;;5069997;28;20472;-64
2022/08/22 05:48:35;;;;;;;12.67;5.67;;;22.20;19.70;;;;;;5068924;28;20526;-64
2022/08/22 05:51:13;;;;;;;9.30;5.67;;;23.20;17.80;;;;;;5081130;28;20449;-64
2022/08/22 05:53:42;;;;;;;8.00;5.60;;;24.20;15.50;;;;;;5078557;28;20487;-65
2022/08/22 05:56:15;;;;;;;7.77;5.50;;;25.20;13.40;;;;;;5073303;28;20455;-63
2022/08/22 05:58:49;;;;;;;8.43;5.70;;;26.20;11.00;;;;;;5070259;28;20449;-64
2022/08/22 06:01:29;;;;;;;7.07;5.20;;;27.30;9.30;;;;;;5068972;28;20464;-65
2022/08/22 06:04:04;;;;;;;8.47;5.17;;;28.30;7.30;;;;;;5069536;28;20776;-65
2022/08/22 06:06:37;;;;;;;8.47;5.80;;;29.40;5.10;;;;;;5072624;28;20547;-65
2022/08/22 06:09:14;;;;;;;8.30;5.90;;;30.40;3.80;;;;;;5075525;28;20507;-65
2022/08/22 06:11:47;;;;;;;9.10;5.73;;;31.50;2.00;;;;;;5077128;28;21180;-65
2022/08/22 06:14:24;;;;;;;9.73;6.10;;;32.50;1.00;;;;;;5069034;28;20473;-65
2022/08/22 06:16:58;;;;;;;7.17;5.33;;;33.30;1.00;;;;;;5060656;28;20460;-65
2022/08/22 06:19:26;;;;;;;14.40;5.90;;;34.10;1.00;;;;;;5076940;28;20457;-65
2022/08/22 06:21:55;;;;;;;8.27;6.60;;;35.00;1.00;;;;;;5076265;28;20453;-65
2022/08/22 06:24:24;;;;;;;8.17;5.30;;;35.60;1.00;;;;;;5068981;28;20485;-65
2022/08/22 06:26:54;;;;;;;7.70;5.43;;;36.40;1.00;;;;;;5071935;28;20457;-65
2022/08/22 06:29:35;;;;;;;7.03;5.37;;;36.90;1.00;;;;;;5079860;28;21019;-65
2022/08/22 06:32:09;;;;;;;8.73;5.50;;;37.30;1.00;;;;;;5069314;28;21037;-67
2022/08/22 06:34:41;;;;;;;9.43;5.20;;;37.80;1.00;;;;;;5069071;28;20485;-65
2022/08/22 06:37:15;;;;;;;6.97;5.00;;;38.40;1.00;;;;;;5082315;28;20457;-65
2022/08/22 06:39:47;;;;;;;10.80;4.50;;;39.00;1.00;;;;;;5068902;28;20828;-65
2022/08/22 06:42:20;;;;;;;6.17;4.83;;;39.70;1.00;;;;;;5068021;28;20502;-65
2022/08/22 06:44:50;;;;;;;6.77;5.03;;;40.40;1.00;;;;;;5064449;28;20452;-65
2022/08/22 06:47:21;;;;;;;5.50;4.03;;;40.80;1.00;;;;;;5072945;28;20460;-65
2022/08/22 06:49:52;;;;;;;7.20;5.30;;;41.30;1.00;;;;;;5069260;28;20460;-65
2022/08/22 06:52:22;;;;;;;10.20;5.30;;;41.90;1.00;;;;;;5064884;28;20480;-66
2022/08/22 06:54:56;;;;;;;7.13;4.70;;;42.40;1.00;;;;;;5069300;28;20472;-65
2022/08/22 06:57:28;;;;;;;7.00;5.00;;;42.80;1.00;;;;;;5079103;28;20483;-65
2022/08/22 06:59:56;;;;;;;7.13;5.30;;;43.40;1.00;;;;;;5068818;28;21002;-65
2022/08/22 07:02:29;;;;;;;7.20;5.10;;;43.90;1.00;;;;;;5067134;28;20481;-65
2022/08/22 07:04:57;;;;;;;8.50;5.07;;;44.30;1.00;;;;;;5074505;28;20456;-65
2022/08/22 07:07:27;;;;;;;8.23;4.80;;;44.60;1.00;;;;;;5068147;28;20802;-65
2022/08/22 07:09:56;;;;;;;7.80;4.73;;;45.00;1.00;;;;;;5068931;28;20457;-65
2022/08/22 07:12:28;;;;;;;7.43;5.10;;;45.10;1.00;;;;;;5066803;28;20493;-65
2022/08/22 07:15:00;;;;;;;7.43;5.17;;;45.30;1.00;;;;;;5076862;28;20518;-65
2022/08/22 07:17:30;;;;;;;6.90;4.90;;;45.70;1.00;;;;;;5067866;28;20533;-66
2022/08/22 07:20:04;;;;;;;7.30;5.27;;;46.20;1.00;;;;;;5068721;28;20464;-65
2022/08/22 07:22:35;;;;;;;6.67;5.03;;;46.50;1.00;;;;;;5062541;28;20479;-65
2022/08/22 07:25:06;;;;;;;6.63;5.80;;;46.40;1.00;;;;;;5075212;28;21048;-65
2022/08/22 07:27:46;;;;;;;11.10;6.07;;;46.60;1.00;;;;;;5073648;28;20953;-65
2022/08/22 07:30:15;;;;;;;8.60;6.00;;;46.60;1.00;;;;;;5070329;28;20454;-65
2022/08/22 07:32:51;;;;;;;9.77;5.20;;;46.60;1.00;;;;;;5068338;28;20472;-65
2022/08/22 07:35:24;;;;;;;7.30;4.90;;;46.80;1.00;;;;;;5068020;28;20536;-66
2022/08/22 07:38:02;;;;;;;8.80;5.60;;;47.60;1.00;;;;;;5070259;28;20963;-65
2022/08/22 07:40:34;;;;;;;6.07;5.03;;;48.10;1.00;;;;;;5076511;28;20621;-65
2022/08/22 07:43:11;;;;;;;6.23;5.43;;;48.50;1.00;;;;;;5068351;28;20472;-66
2022/08/22 07:45:46;;;;;;;6.53;5.83;;;48.90;1.00;;;;;;5065736;28;20460;-65
2022/08/22 07:48:24;;;;;;;7.67;5.17;;;49.30;1.00;;;;;;5065734;28;20476;-65
2022/08/22 07:51:02;;;;;;;7.03;5.50;;;49.70;1.00;;;;;;5060752;28;20460;-66
2022/08/22 07:53:38;;;;;;;5.70;4.63;;;49.90;1.00;;;;;;5066079;28;20917;-65
2022/08/22 07:56:08;;;;;;;6.00;5.00;;;50.10;1.00;;;;;;5073203;28;20456;-66
2022/08/22 07:58:39;;;;;;;9.80;5.80;;;50.20;1.00;;;;;;5075897;28;20454;-66
2022/08/22 08:01:09;;;;;;;5.87;4.77;;;50.30;1.00;;;;;;5067585;28;20465;-66
2022/08/22 08:03:37;;;;;;;6.97;5.20;;;50.30;1.00;;;;;;5060042;28;20534;-66
2022/08/22 08:06:05;;;;;;;6.90;6.20;;;49.90;1.00;;;;;;5072133;28;20456;-65
2022/08/22 08:08:37;;;;;;;6.30;4.97;;;48.80;1.00;;;;;;5075514;28;20473;-65
2022/08/22 08:11:07;;;;;;;6.60;5.80;;;48.50;1.00;;;;;;5067947;28;20576;-66
2022/08/22 08:13:36;;;;;;;6.90;5.10;;;49.00;1.00;;;;;;5067684;28;20476;-66
2022/08/22 08:16:07;;;;;;;7.40;5.10;;;49.90;1.00;;;;;;5066521;28;20460;-66
2022/08/22 08:18:35;;;;;;;6.63;4.93;;;50.50;1.00;;;;;;5077620;28;20445;-66
2022/08/22 08:21:09;;;;;;;6.33;5.20;;;50.70;1.00;;;;;;5068051;28;20459;-65
2022/08/22 08:23:40;;;;;;;9.07;5.60;;;50.30;1.00;;;;;;5065716;28;20542;-66
2022/08/22 08:26:11;;;;;;;7.17;5.47;;;49.00;1.00;;;;;;5068989;28;20457;-66
2022/08/22 08:28:40;;;;;;;8.20;5.87;;;47.80;1.00;;;;;;5066742;28;20481;-65
2022/08/22 08:31:16;;;;;;;9.17;6.40;;;46.80;1.00;;;;;;5069666;28;20552;-65
2022/08/22 08:33:47;;;;;;;6.90;5.00;;;47.70;1.00;;;;;;5072541;28;20469;-65
2022/08/22 08:36:35;;;;;;;7.27;5.60;;;48.30;1.00;;;;;;5071539;28;20821;-65
2022/08/22 08:39:12;;;;;;;7.10;5.13;;;49.50;1.00;;;;;;5071363;28;20453;-65
2022/08/22 08:42:07;;;;;;;6.07;5.13;;;50.40;1.00;;;;;;5080216;28;20495;-65
2022/08/22 08:45:01;;;;;;;6.17;5.30;;;50.60;1.00;;;;;;5072247;28;20484;-65
2022/08/22 08:47:37;;;;;;;5.57;4.93;;;51.00;1.00;;;;;;5068974;28;21017;-66
2022/08/22 08:50:20;;;;;;;6.23;5.27;;;51.50;1.00;;;;;;5075014;28;20479;-65
2022/08/22 08:53:25;;;;;;;5.80;4.67;;;51.80;1.00;;;;;;5070115;28;20476;-66
2022/08/22 08:55:58;;;;;;;6.40;4.80;;;51.80;1.00;;;;;;5063689;28;20444;-66
2022/08/22 08:58:42;;;;;;;8.70;4.93;;;52.40;1.00;;;;;;5067986;28;20460;-65
2022/08/22 09:01:26;;;;;;;4.87;4.33;;;52.30;1.00;;;;;;5078667;28;21044;-66
2022/08/22 09:04:19;;;;;;;8.57;5.00;;;52.40;1.00;;;;;;5068755;28;20863;-66
2022/08/22 09:06:59;;;;;;;5.53;4.00;;;51.80;1.00;;;;;;5063153;28;20456;-65
2022/08/22 09:09:44;;;;;;;5.13;4.43;;;51.90;1.00;;;;;;5067911;28;20508;-66
2022/08/22 09:12:33;;;;;;;4.90;3.70;;;52.60;1.00;;;;;;5079246;28;20513;-66
2022/08/22 09:15:31;;;;;;;6.30;5.07;;;52.90;1.00;;;;;;5065116;28;20459;-65
2022/08/22 09:18:16;;;;;;;6.10;4.50;;;52.80;1.00;;;;;;5070944;28;20489;-64
2022/08/22 09:20:58;;;;;;;7.07;4.00;;;52.80;1.00;;;;;;5068110;28;20537;-65
2022/08/22 09:23:59;;;;;;;7.00;4.20;;;52.00;1.00;;;;;;5081628;28;20516;-64
2022/08/22 09:26:35;;;;;;;5.63;3.73;;;51.60;1.00;;;;;;5070797;28;20459;-64
2022/08/22 09:29:15;;;;;;;4.87;4.30;;;51.20;1.00;;;;;;5069300;28;20468;-64
2022/08/22 09:31:50;;;;;;;5.20;4.13;;;51.10;1.00;;;;;;5077288;28;20468;-64
2022/08/22 09:34:25;;;;;;;5.80;4.20;;;50.90;1.00;;;;;;5066162;28;20469;-64
2022/08/22 09:37:06;;;;;;;6.30;3.70;;;49.90;1.00;;;;;;5066703;28;20452;-64
2022/08/22 09:39:36;;;;;;;4.80;3.97;;;48.90;1.00;;;;;;5071064;28;20449;-64
2022/08/22 09:42:11;;;;;;;6.23;3.90;;;49.40;1.00;;;;;;5081037;28;20452;-64
2022/08/22 09:44:45;;;;;;;4.50;3.03;;;50.00;1.00;;;;;;5069987;28;20499;-64
2022/08/22 09:47:21;;;;;;;5.93;3.80;;;50.80;1.00;;;;;;5065860;28;20449;-64
2022/08/22 09:49:56;;;;;;;4.83;3.57;;;51.90;1.00;;;;;;5072165;28;20483;-65
2022/08/22 09:52:47;;;;;;;6.00;3.47;;;51.70;1.00;;;;;;5079871;28;20459;-64
2022/08/22 09:55:33;;;;;;;7.10;3.43;;;51.00;1.00;;;;;;5068489;28;20460;-64
2022/08/22 09:58:07;;;;;;;4.40;3.27;;;51.30;1.00;;;;;;5062650;28;20457;-64
2022/08/22 10:00:43;;;;;;;4.77;2.67;;;51.90;1.00;;;;;;5073409;28;20469;-64
2022/08/22 10:03:18;;;;;;;4.83;2.90;;;52.60;1.00;;;;;;5073371;28;20476;-64
2022/08/22 10:05:48;;;;;;;4.30;3.13;;;52.60;1.00;;;;;;5069699;28;20471;-64
2022/08/22 10:08:30;;;;;;;5.07;2.93;;;52.60;1.00;;;;;;5066822;28;21046;-65
2022/08/22 10:11:19;;;;;;;5.07;3.30;;;52.50;1.00;;;;;;5069327;28;20448;-64
2022/08/22 10:14:00;;;;;;;4.60;2.90;;;52.20;1.00;;;;;;5065408;28;20468;-64
2022/08/22 10:16:43;;;;;;;5.80;3.27;;;52.30;1.00;;;;;;5069809;28;20445;-64
2022/08/22 10:19:19;;;;;;;7.40;3.27;;;52.70;1.00;;;;;;5070576;28;20836;-64
2022/08/22 10:22:20;;;;;;;4.30;3.70;;;52.10;1.00;;;;;;5077651;28;20447;-64
2022/08/22 10:24:58;;;;;;;6.23;3.40;;;51.40;1.00;;;;;;5061533;28;20461;-64
2022/08/22 10:27:41;;;;;;;4.93;3.53;;;50.60;1.00;;;;;;5069833;28;20465;-64
2022/08/22 10:30:12;;;;;;;5.50;3.47;;;49.70;1.00;;;;;;5077723;28;21033;-64
2022/08/22 10:32:43;;;;;;;6.00;3.73;;;49.40;1.00;;;;;;5069846;28;20476;-64
2022/08/22 10:35:18;;;;;;;5.60;3.87;;;49.30;1.00;;;;;;5064309;28;20457;-64
2022/08/22 10:37:53;;;;;;;5.60;3.57;;;48.80;1.00;;;;;;5063707;28;20461;-64
2022/08/22 10:40:26;;;;;;;6.43;4.27;;;48.70;1.00;;;;;;5064441;28;20991;-64
2022/08/22 10:42:58;;;;;;;5.23;3.77;;;48.80;1.00;;;;;;5081253;28;20988;-64
2022/08/22 10:45:32;;;;;;;5.60;3.60;;;48.10;1.00;;;;;;5068783;28;20453;-64
2022/08/22 10:48:34;;;;;;;4.90;3.90;;;46.90;1.00;;;;;;5067748;28;20486;-64
2022/08/22 10:51:13;;;;;;;6.10;3.90;;;45.30;1.00;;;;;;5074085;28;21114;-64
2022/08/22 10:54:07;;;;;;;5.33;3.57;;;43.70;1.00;;;;;;5067159;28;21004;-64
2022/08/22 10:56:41;;;;;;;5.70;3.57;;;42.00;1.00;;;;;;5050939;28;20457;-63
2022/08/22 10:59:22;;;;;;;6.90;4.00;;;40.40;1.00;;;;;;5068678;28;20903;-64
2022/08/22 11:02:07;;;;;;;6.43;3.83;;;38.70;1.00;;;;;;5060868;28;20949;-64
2022/08/22 11:04:55;;;;;;;5.90;3.77;;;37.40;1.00;;;;;;5076456;28;20476;-64
2022/08/22 11:07:44;;;;;;;5.90;4.17;;;36.20;1.00;;;;;;5073299;28;20448;-64
2022/08/22 11:10:22;;;;;;;7.10;4.50;;;35.20;1.00;;;;;;5068453;28;20492;-64
2022/08/22 11:13:01;;;;;;;6.60;4.00;;;34.70;1.00;;;;;;5064029;28;20483;-64
2022/08/22 11:15:51;;;;;;;5.40;4.00;;;34.50;1.00;;;;;;5072113;28;20953;-63
2022/08/22 11:18:29;;;;;;;6.23;4.43;;;34.00;1.00;;;;;;5065459;28;20527;-64
2022/08/22 11:21:02;;;;;;;5.03;3.67;;;33.50;1.00;;;;;;5068580;28;20449;-63
2022/08/22 11:23:39;;;;;;;7.77;4.13;;;32.90;1.00;;;;;;5071217;28;20489;-64
2022/08/22 11:26:14;;;;;;;9.87;5.20;;;32.50;1.00;;;;;;5074420;28;20457;-64
2022/08/22 11:29:14;;;;;;;8.33;4.30;;;32.10;1.00;;;;;;5083013;28;20839;-64
2022/08/22 11:31:50;;;;;;;6.40;4.00;;;31.50;1.00;;;;;;5067390;28;20854;-64
2022/08/22 11:34:30;;;;;;;5.80;3.80;;;31.00;1.00;;;;;;5071024;28;20484;-63
2022/08/22 11:37:03;;;;;;;7.00;4.70;;;30.60;1.00;;;;;;5068651;28;20452;-64
2022/08/22 11:39:37;;;;;;;6.13;3.87;;;30.40;1.00;;;;;;5067868;28;21442;-64
2022/08/22 11:42:11;;;;;;;5.90;4.00;;;30.40;1.00;;;;;;5070447;28;20494;-63
2022/08/22 11:44:45;;;;;;;7.40;4.20;;;30.60;1.10;;;;;;5074438;28;20477;-63
2022/08/22 11:47:15;;;;;;;9.50;4.17;;;30.80;1.00;;;;;;5067898;28;20464;-63
2022/08/22 11:49:51;;;;;;;7.10;4.33;;;30.80;1.00;;;;;;5067963;28;20473;-63
2022/08/22 11:52:30;;;;;;;7.60;4.30;;;30.80;1.00;;;;;;5069778;28;20457;-63
2022/08/22 11:55:23;;;;;;;7.27;4.07;;;30.70;1.00;;;;;;5071717;28;20812;-63
2022/08/22 11:57:52;;;;;;;8.43;4.50;;;30.60;1.00;;;;;;5059749;28;20477;-63
2022/08/22 12:00:27;;;;;;;8.00;4.73;;;30.50;1.00;;;;;;5073675;28;20507;-63
2022/08/22 12:03:20;;;;;;;7.57;4.17;;;30.20;1.00;;;;;;5067604;28;20476;-63
2022/08/22 12:05:51;;;;;;;9.43;4.83;;;29.90;1.00;;;;;;5062751;28;20464;-63
2022/08/22 12:08:48;;;;;;;7.50;4.30;;;29.50;1.00;;;;;;5068215;28;20464;-63
2022/08/22 12:11:22;;;;;;;6.97;4.10;;;29.20;1.00;;;;;;5079283;28;20475;-63
2022/08/22 12:13:52;;;;;;;6.90;4.00;;;29.00;2.80;;;;;;5067592;28;20844;-64
2022/08/22 12:16:26;;;;;;;6.37;4.03;;;28.90;2.00;;;;;;5063862;28;20463;-63
2022/08/22 12:19:01;;;;;;;7.63;4.23;;;28.90;1.00;;;;;;5083427;28;20467;-64
2022/08/22 12:22:03;;;;;;;6.20;4.07;;;28.90;1.00;;;;;;5067599;28;20887;-64
2022/08/22 12:24:36;;;;;;;6.37;3.53;;;28.90;1.20;;;;;;5065375;28;20476;-64
2022/08/22 12:27:21;;;;;;;6.20;3.70;;;28.80;1.00;;;;;;5066363;28;20464;-63
2022/08/22 12:30:00;;;;;;;7.13;3.70;;;28.70;1.00;;;;;;5076366;28;20476;-64
2022/08/22 12:33:05;;;;;;;8.60;3.90;;;28.70;1.80;;;;;;5063937;28;20458;-63
2022/08/22 12:35:44;;;;;;;5.73;3.23;;;28.80;2.90;;;;;;5065738;28;20457;-63
2022/08/22 12:38:32;;;;;;;5.80;3.50;;;28.70;2.90;;;;;;5067530;28;20452;-63
2022/08/22 12:41:18;;;;;;;7.33;3.70;;;28.70;2.30;;;;;;5068828;28;20592;-64
2022/08/22 12:43:56;;;;;;;8.73;3.47;;;28.60;1.90;;;;;;5060237;28;20473;-64
2022/08/22 12:46:36;;;;;;;7.33;3.47;;;28.50;1.30;;;;;;5059653;28;20458;-64
2022/08/22 12:49:21;;;;;;;8.33;3.30;;;28.50;2.10;;;;;;5081610;28;20488;-64
2022/08/22 12:52:01;;;;;;;6.37;3.70;;;28.60;1.80;;;;;;5058655;28;20445;-63
2022/08/22 12:54:55;;;;;;;5.87;3.37;;;28.60;1.10;;;;;;5067125;28;20473;-64
2022/08/22 12:57:41;;;;;;;8.80;3.30;;;28.70;1.10;;;;;;5073879;28;20543;-64
2022/08/22 13:00:27;;;;;;;5.50;3.20;;;28.80;1.60;;;;;;5072480;28;20460;-64
2022/08/22 13:02:55;;;;;;;5.30;2.80;;;28.80;1.00;;;;;;5066919;28;20457;-63
2022/08/22 13:05:25;;;;;;;6.07;3.00;;;28.70;1.00;;;;;;5066854;28;20453;-63
2022/08/22 13:07:59;;;;;;;8.07;3.53;;;28.50;1.00;;;;;;5063163;28;20461;-64
2022/08/22 13:10:44;;;;;;;7.10;3.40;;;28.30;1.00;;;;;;5078112;28;21131;-63
2022/08/22 13:13:15;;;;;;;6.30;3.20;;;28.00;1.00;;;;;;5070280;28;20483;-63
2022/08/22 13:15:47;;;;;;;7.00;3.53;;;27.80;1.00;;;;;;5066901;28;20449;-63
2022/08/22 13:18:20;;;;;;;8.90;3.40;;;27.70;1.00;;;;;;5068990;28;20967;-63
2022/08/22 13:20:50;;;;;;;6.00;2.97;;;27.50;1.00;;;;;;5073817;28;20459;-63
2022/08/22 13:23:22;;;;;;;5.97;3.70;;;27.40;1.00;;;;;;5075390;28;20484;-63
2022/08/22 13:26:05;;;;;;;8.33;3.50;;;27.30;1.20;;;;;;5064683;28;20453;-63
2022/08/22 13:28:35;;;;;;;5.93;3.63;;;27.20;1.00;;;;;;5078002;28;20452;-63
2022/08/22 13:31:04;;;;;;;7.57;3.40;;;27.20;1.50;;;;;;5078487;28;20469;-63
2022/08/22 13:33:33;;;;;;;7.03;3.30;;;27.20;2.90;;;;;;5069608;28;20489;-63
2022/08/22 13:36:05;;;;;;;6.80;3.67;;;27.30;2.00;;;;;;5075940;28;20452;-63
2022/08/22 13:38:39;;;;;;;6.87;3.70;;;27.30;1.80;;;;;;5078615;28;20480;-63
2022/08/22 13:41:08;;;;;;;5.60;3.30;;;27.40;2.00;;;;;;5064645;28;20444;-61
2022/08/22 13:43:54;;;;;;;7.90;3.77;;;27.40;2.40;;;;;;5072685;28;20484;-62
2022/08/22 13:46:25;;;;;;;6.30;3.40;;;27.40;1.20;;;;;;5080788;28;20449;-62
2022/08/22 13:48:54;;;;;;;7.53;4.07;;;27.40;1.90;;;;;;5065036;28;20460;-62